sensor_id;sensor_type;location;lat;lon;timestamp;pressure;altitude;pressure_sealevel;temperature;humidity
75996;BME280;64681;49.738;9.004;2023-01-16T00:01:51;98175.78;;;5.96;68.05
75996;BME280;64681;49.738;9.004;2023-01-16T00:04:17;98169.69;;;5.95;68.12
75996;BME280;64681;49.738;9.004;2023-01-16T00:06:43;98156.81;;;6.06;67.40
75996;BME280;64681;49.738;9.004;2023-01-16T00:09:08;98150.25;;;5.91;66.83
75996;BME280;64681;49.738;9.004;2023-01-16T00:11:34;98145.47;;;5.72;67.58
75996;BME280;64681;49.738;9.004;2023-01-16T00:13:59;98136.50;;;5.31;68.67
75996;BME280;64681;49.738;9.004;2023-01-16T00:16:28;98128.41;;;5.48;68.57
75996;BME280;64681;49.738;9.004;2023-01-16T00:18:53;98131.88;;;5.61;68.56
75996;BME280;64681;49.738;9.004;2023-01-16T00:21:20;98127.38;;;5.74;68.12
75996;BME280;64681;49.738;9.004;2023-01-16T00:23:47;98135.34;;;5.86;67.70
75996;BME280;64681;49.738;9.004;2023-01-16T00:26:13;98132.28;;;5.63;68.04
75996;BME280;64681;49.738;9.004;2023-01-16T00:28:39;98124.34;;;5.63;67.44
75996;BME280;64681;49.738;9.004;2023-01-16T00:31:05;98129.72;;;5.42;68.07
75996;BME280;64681;49.738;9.004;2023-01-16T00:33:33;98122.41;;;5.73;67.58
75996;BME280;64681;49.738;9.004;2023-01-16T00:35:59;98107.91;;;5.58;67.57
75996;BME280;64681;49.738;9.004;2023-01-16T00:38:25;98095.44;;;5.58;69.14
75996;BME280;64681;49.738;9.004;2023-01-16T00:40:50;98089.06;;;5.26;68.66
75996;BME280;64681;49.738;9.004;2023-01-16T00:43:16;98092.31;;;5.44;68.53
75996;BME280;64681;49.738;9.004;2023-01-16T00:45:41;98075.34;;;5.57;67.44
75996;BME280;64681;49.738;9.004;2023-01-16T00:48:08;98067.84;;;5.47;67.62
75996;BME280;64681;49.738;9.004;2023-01-16T00:50:34;98062.31;;;5.39;68.89
75996;BME280;64681;49.738;9.004;2023-01-16T00:52:59;98063.03;;;4.94;69.40
75996;BME280;64681;49.738;9.004;2023-01-16T00:55:25;98064.06;;;4.81;69.40
75996;BME280;64681;49.738;9.004;2023-01-16T00:57:51;98057.41;;;4.96;70.37
75996;BME280;64681;49.738;9.004;2023-01-16T01:00:19;98043.38;;;5.16;68.91
75996;BME280;64681;49.738;9.004;2023-01-16T01:02:48;98044.34;;;5.12;69.34
75996;BME280;64681;49.738;9.004;2023-01-16T01:05:14;98044.09;;;5.04;69.43
75996;BME280;64681;49.738;9.004;2023-01-16T01:07:39;98029.16;;;5.09;69.00
75996;BME280;64681;49.738;9.004;2023-01-16T01:10:05;98034.84;;;5.11;69.53
75996;BME280;64681;49.738;9.004;2023-01-16T01:12:31;98039.19;;;5.15;69.33
75996;BME280;64681;49.738;9.004;2023-01-16T01:14:57;98032.97;;;4.78;70.58
75996;BME280;64681;49.738;9.004;2023-01-16T01:17:22;98025.72;;;4.87;70.67
75996;BME280;64681;49.738;9.004;2023-01-16T01:19:48;98023.50;;;4.77;70.34
75996;BME280;64681;49.738;9.004;2023-01-16T01:22:13;98015.81;;;4.84;70.05
75996;BME280;64681;49.738;9.004;2023-01-16T01:24:41;98015.75;;;4.71;70.16
75996;BME280;64681;49.738;9.004;2023-01-16T01:27:07;98000.22;;;4.49;70.35
75996;BME280;64681;49.738;9.004;2023-01-16T01:29:32;98014.78;;;4.76;71.34
75996;BME280;64681;49.738;9.004;2023-01-16T01:31:58;97999.00;;;4.67;70.58
75996;BME280;64681;49.738;9.004;2023-01-16T01:34:24;97999.50;;;4.60;70.55
75996;BME280;64681;49.738;9.004;2023-01-16T01:36:49;98006.75;;;4.51;71.30
75996;BME280;64681;49.738;9.004;2023-01-16T01:39:15;97986.94;;;4.57;70.97
75996;BME280;64681;49.738;9.004;2023-01-16T01:41:41;97981.22;;;4.55;71.41
75996;BME280;64681;49.738;9.004;2023-01-16T01:47:10;97981.09;;;4.85;69.53
75996;BME280;64681;49.738;9.004;2023-01-16T01:49:37;97959.50;;;4.83;69.55
75996;BME280;64681;49.738;9.004;2023-01-16T01:52:05;97970.13;;;4.62;70.30
75996;BME280;64681;49.738;9.004;2023-01-16T01:54:48;97957.53;;;4.59;70.26
75996;BME280;64681;49.738;9.004;2023-01-16T01:57:22;97956.91;;;4.96;68.85
75996;BME280;64681;49.738;9.004;2023-01-16T01:59:59;97947.31;;;5.03;68.80
75996;BME280;64681;49.738;9.004;2023-01-16T02:02:34;97947.41;;;4.82;69.89
75996;BME280;64681;49.738;9.004;2023-01-16T02:05:04;97936.34;;;4.47;71.03
75996;BME280;64681;49.738;9.004;2023-01-16T02:07:32;97933.63;;;4.55;71.59
75996;BME280;64681;49.738;9.004;2023-01-16T02:12:52;97911.00;;;4.79;69.81
75996;BME280;64681;49.738;9.004;2023-01-16T02:15:20;97898.16;;;5.02;69.66
75996;BME280;64681;49.738;9.004;2023-01-16T02:17:48;97893.50;;;4.87;69.47
75996;BME280;64681;49.738;9.004;2023-01-16T02:21:01;97893.81;;;4.73;69.60
75996;BME280;64681;49.738;9.004;2023-01-16T02:31:46;97860.31;;;4.77;70.14
75996;BME280;64681;49.738;9.004;2023-01-16T02:37:44;97851.06;;;4.71;70.54
75996;BME280;64681;49.738;9.004;2023-01-16T02:45:57;97828.41;;;4.82;69.68
75996;BME280;64681;49.738;9.004;2023-01-16T02:48:37;97814.84;;;4.84;70.02
75996;BME280;64681;49.738;9.004;2023-01-16T02:56:33;97784.97;;;5.20;68.64
75996;BME280;64681;49.738;9.004;2023-01-16T02:59:02;97796.66;;;5.19;68.86
75996;BME280;64681;49.738;9.004;2023-01-16T03:01:28;97772.81;;;5.07;68.76
75996;BME280;64681;49.738;9.004;2023-01-16T03:06:33;97761.53;;;5.47;67.88
75996;BME280;64681;49.738;9.004;2023-01-16T03:12:36;97757.63;;;5.16;67.24
75996;BME280;64681;49.738;9.004;2023-01-16T03:20:10;97729.59;;;5.68;65.25
75996;BME280;64681;49.738;9.004;2023-01-16T03:22:47;97729.47;;;5.36;67.25
75996;BME280;64681;49.738;9.004;2023-01-16T03:25:32;97718.84;;;5.77;65.74
75996;BME280;64681;49.738;9.004;2023-01-16T03:31:04;97702.13;;;5.89;65.14
75996;BME280;64681;49.738;9.004;2023-01-16T03:36:59;97693.31;;;5.85;64.81
75996;BME280;64681;49.738;9.004;2023-01-16T03:39:33;97683.75;;;5.96;65.78
75996;BME280;64681;49.738;9.004;2023-01-16T03:42:07;97681.88;;;5.97;65.78
75996;BME280;64681;49.738;9.004;2023-01-16T03:44:50;97678.84;;;6.11;64.90
75996;BME280;64681;49.738;9.004;2023-01-16T03:47:25;97681.09;;;5.96;64.95
75996;BME280;64681;49.738;9.004;2023-01-16T03:50:00;97674.81;;;5.57;67.05
75996;BME280;64681;49.738;9.004;2023-01-16T03:52:35;97682.72;;;5.85;65.51
75996;BME280;64681;49.738;9.004;2023-01-16T03:55:16;97666.41;;;5.54;65.87
75996;BME280;64681;49.738;9.004;2023-01-16T03:58:07;97656.53;;;5.67;66.45
75996;BME280;64681;49.738;9.004;2023-01-16T04:00:57;97661.75;;;5.64;66.16
75996;BME280;64681;49.738;9.004;2023-01-16T04:03:47;97655.91;;;5.58;66.18
75996;BME280;64681;49.738;9.004;2023-01-16T04:09:13;97642.66;;;5.42;68.17
75996;BME280;64681;49.738;9.004;2023-01-16T04:11:42;97632.38;;;5.41;68.25
75996;BME280;64681;49.738;9.004;2023-01-16T04:14:12;97630.59;;;5.29;68.91
75996;BME280;64681;49.738;9.004;2023-01-16T04:16:40;97610.69;;;5.06;68.44
75996;BME280;64681;49.738;9.004;2023-01-16T04:19:12;97607.41;;;4.97;70.08
75996;BME280;64681;49.738;9.004;2023-01-16T04:21:43;97605.28;;;4.74;70.24
75996;BME280;64681;49.738;9.004;2023-01-16T04:24:10;97598.19;;;4.91;69.49
75996;BME280;64681;49.738;9.004;2023-01-16T04:26:36;97587.69;;;4.54;71.00
75996;BME280;64681;49.738;9.004;2023-01-16T04:29:01;97596.59;;;4.74;69.99
75996;BME280;64681;49.738;9.004;2023-01-16T04:31:27;97596.00;;;4.81;70.27
75996;BME280;64681;49.738;9.004;2023-01-16T04:33:54;97601.47;;;4.47;70.99
75996;BME280;64681;49.738;9.004;2023-01-16T04:36:20;97586.19;;;4.40;71.17
75996;BME280;64681;49.738;9.004;2023-01-16T04:38:45;97578.06;;;4.74;70.73
75996;BME280;64681;49.738;9.004;2023-01-16T04:41:11;97579.03;;;4.82;70.06
75996;BME280;64681;49.738;9.004;2023-01-16T04:43:36;97566.94;;;5.09;69.84
75996;BME280;64681;49.738;9.004;2023-01-16T04:46:02;97566.09;;;5.21;68.36
75996;BME280;64681;49.738;9.004;2023-01-16T04:48:28;97558.13;;;4.77;68.87
75996;BME280;64681;49.738;9.004;2023-01-16T04:50:53;97549.13;;;4.65;69.67
75996;BME280;64681;49.738;9.004;2023-01-16T04:53:19;97544.09;;;5.17;69.44
75996;BME280;64681;49.738;9.004;2023-01-16T04:55:44;97539.34;;;5.38;67.88
75996;BME280;64681;49.738;9.004;2023-01-16T04:58:10;97532.56;;;5.25;68.24
75996;BME280;64681;49.738;9.004;2023-01-16T05:00:35;97525.94;;;5.31;68.56
75996;BME280;64681;49.738;9.004;2023-01-16T05:03:01;97513.28;;;5.25;68.92
75996;BME280;64681;49.738;9.004;2023-01-16T05:05:27;97501.63;;;4.97;68.72
75996;BME280;64681;49.738;9.004;2023-01-16T05:07:53;97489.38;;;5.21;69.13
75996;BME280;64681;49.738;9.004;2023-01-16T05:10:37;97483.06;;;5.26;68.76
75996;BME280;64681;49.738;9.004;2023-01-16T05:13:03;97476.56;;;5.39;67.83
75996;BME280;64681;49.738;9.004;2023-01-16T05:15:29;97474.63;;;5.36;66.71
75996;BME280;64681;49.738;9.004;2023-01-16T05:17:54;97468.72;;;5.43;67.21
75996;BME280;64681;49.738;9.004;2023-01-16T05:20:21;97460.78;;;5.43;68.11
75996;BME280;64681;49.738;9.004;2023-01-16T05:22:47;97455.41;;;5.55;67.51
75996;BME280;64681;49.738;9.004;2023-01-16T05:25:13;97458.16;;;5.59;65.69
75996;BME280;64681;49.738;9.004;2023-01-16T05:27:38;97442.75;;;5.64;66.63
75996;BME280;64681;49.738;9.004;2023-01-16T05:30:04;97431.91;;;5.69;65.68
75996;BME280;64681;49.738;9.004;2023-01-16T05:32:30;97424.44;;;5.75;65.15
75996;BME280;64681;49.738;9.004;2023-01-16T05:34:55;97418.31;;;5.71;65.46
75996;BME280;64681;49.738;9.004;2023-01-16T05:37:21;97421.44;;;5.25;66.94
75996;BME280;64681;49.738;9.004;2023-01-16T05:39:46;97413.38;;;5.53;66.48
75996;BME280;64681;49.738;9.004;2023-01-16T05:42:12;97416.06;;;5.37;66.32
75996;BME280;64681;49.738;9.004;2023-01-16T05:44:50;97406.59;;;5.04;67.46
75996;BME280;64681;49.738;9.004;2023-01-16T05:47:20;97400.94;;;5.06;67.70
75996;BME280;64681;49.738;9.004;2023-01-16T05:49:46;97397.53;;;5.37;66.44
75996;BME280;64681;49.738;9.004;2023-01-16T05:52:12;97379.44;;;5.39;67.15
75996;BME280;64681;49.738;9.004;2023-01-16T05:54:38;97377.22;;;5.26;67.91
75996;BME280;64681;49.738;9.004;2023-01-16T05:57:04;97368.25;;;5.14;66.98
75996;BME280;64681;49.738;9.004;2023-01-16T05:59:29;97363.16;;;5.05;66.51
75996;BME280;64681;49.738;9.004;2023-01-16T06:01:55;97346.09;;;5.03;67.81
75996;BME280;64681;49.738;9.004;2023-01-16T06:04:22;97343.78;;;4.85;68.57
75996;BME280;64681;49.738;9.004;2023-01-16T06:06:48;97338.75;;;4.80;68.70
75996;BME280;64681;49.738;9.004;2023-01-16T06:09:15;97334.66;;;4.67;69.33
75996;BME280;64681;49.738;9.004;2023-01-16T06:11:41;97328.50;;;4.47;69.53
75996;BME280;64681;49.738;9.004;2023-01-16T06:14:07;97316.84;;;4.48;69.35
75996;BME280;64681;49.738;9.004;2023-01-16T06:16:33;97310.22;;;4.25;70.50
75996;BME280;64681;49.738;9.004;2023-01-16T06:19:00;97300.03;;;4.40;70.24
75996;BME280;64681;49.738;9.004;2023-01-16T06:21:26;97297.03;;;4.25;70.13
75996;BME280;64681;49.738;9.004;2023-01-16T06:23:52;97290.06;;;4.49;68.31
75996;BME280;64681;49.738;9.004;2023-01-16T06:26:17;97283.06;;;4.41;69.33
75996;BME280;64681;49.738;9.004;2023-01-16T06:28:45;97277.34;;;4.23;70.19
75996;BME280;64681;49.738;9.004;2023-01-16T06:31:10;97276.16;;;4.36;70.01
75996;BME280;64681;49.738;9.004;2023-01-16T06:33:36;97266.25;;;4.33;69.76
75996;BME280;64681;49.738;9.004;2023-01-16T06:36:02;97271.88;;;4.16;70.11
75996;BME280;64681;49.738;9.004;2023-01-16T06:38:28;97263.13;;;4.27;69.98
75996;BME280;64681;49.738;9.004;2023-01-16T06:40:53;97262.75;;;4.13;69.79
75996;BME280;64681;49.738;9.004;2023-01-16T06:43:24;97255.19;;;4.27;69.92
75996;BME280;64681;49.738;9.004;2023-01-16T06:45:50;97246.25;;;4.32;69.62
75996;BME280;64681;49.738;9.004;2023-01-16T06:48:16;97247.53;;;4.70;68.00
75996;BME280;64681;49.738;9.004;2023-01-16T06:50:42;97243.69;;;4.52;68.73
75996;BME280;64681;49.738;9.004;2023-01-16T06:53:08;97250.16;;;4.54;69.12
75996;BME280;64681;49.738;9.004;2023-01-16T06:55:33;97232.53;;;4.26;70.10
75996;BME280;64681;49.738;9.004;2023-01-16T06:57:59;97214.59;;;4.04;70.87
75996;BME280;64681;49.738;9.004;2023-01-16T07:00:24;97217.16;;;4.00;70.96
75996;BME280;64681;49.738;9.004;2023-01-16T07:02:52;97211.97;;;4.04;71.14
75996;BME280;64681;49.738;9.004;2023-01-16T07:05:21;97214.69;;;3.35;74.87
75996;BME280;64681;49.738;9.004;2023-01-16T07:07:48;97206.28;;;3.45;74.78
75996;BME280;64681;49.738;9.004;2023-01-16T07:10:14;97193.44;;;3.43;74.57
75996;BME280;64681;49.738;9.004;2023-01-16T07:12:39;97186.50;;;3.95;72.56
75996;BME280;64681;49.738;9.004;2023-01-16T07:15:06;97180.94;;;3.85;72.60
75996;BME280;64681;49.738;9.004;2023-01-16T07:17:50;97175.09;;;4.07;70.70
75996;BME280;64681;49.738;9.004;2023-01-16T07:20:35;97175.25;;;4.15;70.78
75996;BME280;64681;49.738;9.004;2023-01-16T07:23:24;97162.13;;;3.86;71.94
75996;BME280;64681;49.738;9.004;2023-01-16T07:25:53;97164.09;;;3.89;71.92
75996;BME280;64681;49.738;9.004;2023-01-16T07:28:20;97148.13;;;3.70;72.05
75996;BME280;64681;49.738;9.004;2023-01-16T07:30:48;97138.09;;;4.23;70.05
75996;BME280;64681;49.738;9.004;2023-01-16T07:33:15;97136.22;;;4.08;69.69
75996;BME280;64681;49.738;9.004;2023-01-16T07:35:41;97132.81;;;4.39;69.51
75996;BME280;64681;49.738;9.004;2023-01-16T07:38:06;97118.97;;;4.82;66.40
75996;BME280;64681;49.738;9.004;2023-01-16T07:40:32;97124.00;;;4.51;67.34
75996;BME280;64681;49.738;9.004;2023-01-16T07:42:57;97115.50;;;4.78;66.32
75996;BME280;64681;49.738;9.004;2023-01-16T07:45:23;97110.97;;;4.78;66.71
75996;BME280;64681;49.738;9.004;2023-01-16T07:47:48;97114.44;;;4.82;67.13
75996;BME280;64681;49.738;9.004;2023-01-16T07:50:14;97107.13;;;4.95;67.54
75996;BME280;64681;49.738;9.004;2023-01-16T07:52:42;97109.97;;;5.06;66.74
75996;BME280;64681;49.738;9.004;2023-01-16T07:55:08;97099.47;;;5.10;65.86
75996;BME280;64681;49.738;9.004;2023-01-16T07:57:37;97100.59;;;4.69;67.83
75996;BME280;64681;49.738;9.004;2023-01-16T08:00:08;97088.03;;;4.47;69.00
75996;BME280;64681;49.738;9.004;2023-01-16T08:02:36;97079.00;;;3.96;71.47
75996;BME280;64681;49.738;9.004;2023-01-16T08:05:02;97069.91;;;4.29;71.14
75996;BME280;64681;49.738;9.004;2023-01-16T08:07:28;97069.72;;;4.02;71.15
75996;BME280;64681;49.738;9.004;2023-01-16T08:09:53;97072.25;;;4.50;68.95
75996;BME280;64681;49.738;9.004;2023-01-16T08:12:19;97061.13;;;4.60;69.19
75996;BME280;64681;49.738;9.004;2023-01-16T08:14:44;97051.66;;;4.99;66.14
75996;BME280;64681;49.738;9.004;2023-01-16T08:17:10;97049.44;;;5.20;66.03
75996;BME280;64681;49.738;9.004;2023-01-16T08:19:35;97047.28;;;5.06;66.14
75996;BME280;64681;49.738;9.004;2023-01-16T08:22:01;97039.22;;;4.60;67.63
75996;BME280;64681;49.738;9.004;2023-01-16T08:24:28;97039.09;;;4.92;66.56
75996;BME280;64681;49.738;9.004;2023-01-16T08:26:54;97034.56;;;4.93;66.63
75996;BME280;64681;49.738;9.004;2023-01-16T08:29:21;97032.16;;;5.07;65.23
75996;BME280;64681;49.738;9.004;2023-01-16T08:31:47;97031.50;;;5.33;65.99
75996;BME280;64681;49.738;9.004;2023-01-16T08:34:13;97019.25;;;5.25;67.08
75996;BME280;64681;49.738;9.004;2023-01-16T08:36:39;97026.00;;;4.80;67.81
75996;BME280;64681;49.738;9.004;2023-01-16T08:39:04;97008.91;;;4.73;68.55
75996;BME280;64681;49.738;9.004;2023-01-16T08:41:30;97015.78;;;5.21;67.76
75996;BME280;64681;49.738;9.004;2023-01-16T08:44:14;97008.44;;;5.57;67.28
75996;BME280;64681;49.738;9.004;2023-01-16T08:47:03;96995.69;;;6.16;64.61
75996;BME280;64681;49.738;9.004;2023-01-16T08:49:49;96997.63;;;6.20;64.71
75996;BME280;64681;49.738;9.004;2023-01-16T08:52:34;96980.94;;;6.46;63.86
75996;BME280;64681;49.738;9.004;2023-01-16T08:55:01;96971.94;;;6.54;63.67
75996;BME280;64681;49.738;9.004;2023-01-16T08:57:27;96962.22;;;6.31;62.38
75996;BME280;64681;49.738;9.004;2023-01-16T08:59:54;96956.28;;;6.45;61.47
75996;BME280;64681;49.738;9.004;2023-01-16T09:02:21;96951.19;;;5.99;60.79
75996;BME280;64681;49.738;9.004;2023-01-16T09:04:46;96936.19;;;6.44;59.08
75996;BME280;64681;49.738;9.004;2023-01-16T09:07:14;96938.91;;;6.14;59.00
75996;BME280;64681;49.738;9.004;2023-01-16T09:09:39;96927.56;;;6.51;57.71
75996;BME280;64681;49.738;9.004;2023-01-16T09:12:10;96926.53;;;6.59;56.61
75996;BME280;64681;49.738;9.004;2023-01-16T09:14:54;96926.25;;;6.72;58.52
75996;BME280;64681;49.738;9.004;2023-01-16T09:17:22;96927.06;;;6.76;58.34
75996;BME280;64681;49.738;9.004;2023-01-16T09:19:48;96926.56;;;7.01;56.52
75996;BME280;64681;49.738;9.004;2023-01-16T09:22:14;96919.78;;;7.07;57.65
75996;BME280;64681;49.738;9.004;2023-01-16T09:24:39;96930.53;;;7.25;54.36
75996;BME280;64681;49.738;9.004;2023-01-16T09:27:05;96920.28;;;7.23;56.30
75996;BME280;64681;49.738;9.004;2023-01-16T09:29:31;96919.22;;;7.32;56.71
75996;BME280;64681;49.738;9.004;2023-01-16T09:31:56;96913.47;;;7.26;58.17
75996;BME280;64681;49.738;9.004;2023-01-16T09:34:22;96929.44;;;6.47;57.94
75996;BME280;64681;49.738;9.004;2023-01-16T09:36:48;96925.38;;;6.23;58.04
75996;BME280;64681;49.738;9.004;2023-01-16T09:39:13;96925.44;;;6.64;58.99
75996;BME280;64681;49.738;9.004;2023-01-16T09:41:54;96919.84;;;6.35;58.75
75996;BME280;64681;49.738;9.004;2023-01-16T09:44:47;96933.97;;;6.12;63.50
75996;BME280;64681;49.738;9.004;2023-01-16T09:47:14;96932.72;;;5.52;68.10
75996;BME280;64681;49.738;9.004;2023-01-16T09:50:20;96932.13;;;5.36;68.90
75996;BME280;64681;49.738;9.004;2023-01-16T09:52:48;96931.59;;;5.27;70.34
75996;BME280;64681;49.738;9.004;2023-01-16T09:55:45;96928.25;;;5.06;72.59
75996;BME280;64681;49.738;9.004;2023-01-16T09:58:30;96921.97;;;5.15;73.73
75996;BME280;64681;49.738;9.004;2023-01-16T10:03:30;96916.16;;;5.29;72.70
75996;BME280;64681;49.738;9.004;2023-01-16T10:06:16;96912.03;;;5.31;72.82
75996;BME280;64681;49.738;9.004;2023-01-16T10:09:09;96891.81;;;5.46;72.06
75996;BME280;64681;49.738;9.004;2023-01-16T10:11:57;96889.34;;;5.30;73.51
75996;BME280;64681;49.738;9.004;2023-01-16T10:17:58;96872.72;;;5.06;74.25
75996;BME280;64681;49.738;9.004;2023-01-16T10:22:50;96859.69;;;4.94;75.71
75996;BME280;64681;49.738;9.004;2023-01-16T10:25:24;96859.75;;;4.98;75.10
75996;BME280;64681;49.738;9.004;2023-01-16T10:28:11;96857.09;;;4.98;75.29
75996;BME280;64681;49.738;9.004;2023-01-16T10:30:50;96852.88;;;5.20;72.86
75996;BME280;64681;49.738;9.004;2023-01-16T10:36:04;96847.03;;;5.07;74.25
75996;BME280;64681;49.738;9.004;2023-01-16T10:38:35;96841.41;;;4.85;75.38
75996;BME280;64681;49.738;9.004;2023-01-16T10:41:26;96827.78;;;4.83;75.48
75996;BME280;64681;49.738;9.004;2023-01-16T10:47:14;96823.94;;;5.04;75.32
75996;BME280;64681;49.738;9.004;2023-01-16T10:49:59;96811.63;;;5.15;75.25
75996;BME280;64681;49.738;9.004;2023-01-16T10:52:26;96806.22;;;5.08;73.86
75996;BME280;64681;49.738;9.004;2023-01-16T10:54:55;96800.84;;;4.74;74.77
75996;BME280;64681;49.738;9.004;2023-01-16T10:57:22;96774.56;;;4.85;74.46
75996;BME280;64681;49.738;9.004;2023-01-16T10:59:54;96790.72;;;4.80;75.54
75996;BME280;64681;49.738;9.004;2023-01-16T11:02:33;96780.50;;;5.05;75.04
75996;BME280;64681;49.738;9.004;2023-01-16T11:05:00;96779.69;;;5.01;75.11
75996;BME280;64681;49.738;9.004;2023-01-16T11:07:29;96773.41;;;5.39;73.87
75996;BME280;64681;49.738;9.004;2023-01-16T11:09:56;96767.56;;;5.57;72.25
75996;BME280;64681;49.738;9.004;2023-01-16T11:12:31;96756.88;;;5.50;72.87
75996;BME280;64681;49.738;9.004;2023-01-16T11:15:22;96743.25;;;5.17;73.71
75996;BME280;64681;49.738;9.004;2023-01-16T11:18:30;96738.88;;;5.29;72.70
75996;BME280;64681;49.738;9.004;2023-01-16T11:21:01;96734.97;;;5.19;73.13
75996;BME280;64681;49.738;9.004;2023-01-16T11:23:41;96720.41;;;5.32;72.29
75996;BME280;64681;49.738;9.004;2023-01-16T11:26:07;96728.19;;;4.91;74.41
75996;BME280;64681;49.738;9.004;2023-01-16T11:28:35;96722.59;;;5.27;73.38
75996;BME280;64681;49.738;9.004;2023-01-16T11:31:18;96715.56;;;5.42;73.39
75996;BME280;64681;49.738;9.004;2023-01-16T11:33:53;96705.22;;;5.63;70.85
75996;BME280;64681;49.738;9.004;2023-01-16T11:36:24;96707.22;;;5.05;72.03
75996;BME280;64681;49.738;9.004;2023-01-16T11:38:52;96699.56;;;5.61;71.86
75996;BME280;64681;49.738;9.004;2023-01-16T11:41:22;96691.72;;;5.72;71.59
75996;BME280;64681;49.738;9.004;2023-01-16T11:46:58;96667.81;;;6.06;70.54
75996;BME280;64681;49.738;9.004;2023-01-16T11:49:33;96670.75;;;4.91;71.16
75996;BME280;64681;49.738;9.004;2023-01-16T11:52:00;96663.56;;;5.22;73.85
75996;BME280;64681;49.738;9.004;2023-01-16T11:54:31;96645.91;;;5.68;72.31
75996;BME280;64681;49.738;9.004;2023-01-16T11:57:05;96636.97;;;5.83;70.77
75996;BME280;64681;49.738;9.004;2023-01-16T12:00:10;96633.28;;;5.95;69.39
75996;BME280;64681;49.738;9.004;2023-01-16T12:03:15;96617.88;;;6.05;69.40
75996;BME280;64681;49.738;9.004;2023-01-16T12:06:11;96611.63;;;6.34;68.95
75996;BME280;64681;49.738;9.004;2023-01-16T12:14:15;96576.69;;;6.92;65.38
75996;BME280;64681;49.738;9.004;2023-01-16T12:27:42;96549.72;;;6.75;64.70
75996;BME280;64681;49.738;9.004;2023-01-16T12:30:30;96544.50;;;6.93;62.62
75996;BME280;64681;49.738;9.004;2023-01-16T12:46:38;96479.34;;;7.54;62.32
75996;BME280;64681;49.738;9.004;2023-01-16T12:49:12;96477.06;;;7.45;59.98
75996;BME280;64681;49.738;9.004;2023-01-16T13:00:01;96432.56;;;8.07;61.12
75996;BME280;64681;49.738;9.004;2023-01-16T13:05:23;96424.91;;;8.23;60.09
75996;BME280;64681;49.738;9.004;2023-01-16T13:10:30;96422.31;;;7.98;62.58
75996;BME280;64681;49.738;9.004;2023-01-16T13:13:23;96418.19;;;7.83;59.90
75996;BME280;64681;49.738;9.004;2023-01-16T13:16:04;96405.78;;;7.25;60.80
75996;BME280;64681;49.738;9.004;2023-01-16T13:18:39;96400.41;;;7.76;60.70
75996;BME280;64681;49.738;9.004;2023-01-16T13:21:28;96393.53;;;7.82;60.40
75996;BME280;64681;49.738;9.004;2023-01-16T13:24:09;96392.78;;;7.85;61.86
75996;BME280;64681;49.738;9.004;2023-01-16T13:26:37;96382.22;;;7.53;59.88
75996;BME280;64681;49.738;9.004;2023-01-16T13:31:57;96367.03;;;7.68;59.35
75996;BME280;64681;49.738;9.004;2023-01-16T13:34:30;96361.97;;;8.06;58.52
75996;BME280;64681;49.738;9.004;2023-01-16T13:42:00;96324.41;;;8.00;58.64
75996;BME280;64681;49.738;9.004;2023-01-16T13:44:34;96324.19;;;7.62;62.20
75996;BME280;64681;49.738;9.004;2023-01-16T13:47:35;96326.53;;;7.38;63.30
75996;BME280;64681;49.738;9.004;2023-01-16T13:50:28;96330.25;;;7.55;61.02
75996;BME280;64681;49.738;9.004;2023-01-16T13:52:59;96318.53;;;7.49;61.18
75996;BME280;64681;49.738;9.004;2023-01-16T14:00:38;96316.28;;;7.37;63.79
75996;BME280;64681;49.738;9.004;2023-01-16T14:03:27;96313.31;;;7.13;64.64
75996;BME280;64681;49.738;9.004;2023-01-16T14:06:18;96307.25;;;7.20;65.18
75996;BME280;64681;49.738;9.004;2023-01-16T14:08:50;96303.03;;;7.29;64.47
75996;BME280;64681;49.738;9.004;2023-01-16T14:14:31;96283.78;;;6.89;67.07
75996;BME280;64681;49.738;9.004;2023-01-16T14:17:18;96282.63;;;6.97;65.70
75996;BME280;64681;49.738;9.004;2023-01-16T14:19:57;96276.97;;;6.67;68.19
75996;BME280;64681;49.738;9.004;2023-01-16T14:22:39;96273.19;;;6.82;67.76
75996;BME280;64681;49.738;9.004;2023-01-16T14:25:17;96267.47;;;6.87;68.32
75996;BME280;64681;49.738;9.004;2023-01-16T14:27:49;96275.47;;;6.73;66.63
75996;BME280;64681;49.738;9.004;2023-01-16T14:30:23;96260.25;;;7.06;67.60
75996;BME280;64681;49.738;9.004;2023-01-16T14:32:59;96252.72;;;6.79;68.88
75996;BME280;64681;49.738;9.004;2023-01-16T14:35:47;96218.13;;;7.26;67.03
75996;BME280;64681;49.738;9.004;2023-01-16T14:38:27;96212.16;;;6.93;68.35
75996;BME280;64681;49.738;9.004;2023-01-16T14:41:03;96197.44;;;6.63;68.22
75996;BME280;64681;49.738;9.004;2023-01-16T14:44:21;96186.88;;;6.56;66.39
75996;BME280;64681;49.738;9.004;2023-01-16T14:50:16;96158.91;;;6.11;68.62
75996;BME280;64681;49.738;9.004;2023-01-16T14:56:21;96147.53;;;6.18;67.74
75996;BME280;64681;49.738;9.004;2023-01-16T15:01:46;96130.91;;;6.03;68.52
75996;BME280;64681;49.738;9.004;2023-01-16T15:12:43;96104.75;;;5.69;69.08
75996;BME280;64681;49.738;9.004;2023-01-16T15:15:22;96089.25;;;5.75;70.21
75996;BME280;64681;49.738;9.004;2023-01-16T15:17:52;96091.47;;;5.29;69.01
75996;BME280;64681;49.738;9.004;2023-01-16T15:20:37;96077.16;;;5.66;69.20
75996;BME280;64681;49.738;9.004;2023-01-16T15:31:09;96086.22;;;6.23;67.37
75996;BME280;64681;49.738;9.004;2023-01-16T15:33:36;96078.25;;;6.38;67.28
75996;BME280;64681;49.738;9.004;2023-01-16T15:38:46;96067.31;;;6.14;69.12
75996;BME280;64681;49.738;9.004;2023-01-16T15:41:13;96082.06;;;6.22;69.79
75996;BME280;64681;49.738;9.004;2023-01-16T15:43:39;96083.19;;;6.25;67.98
75996;BME280;64681;49.738;9.004;2023-01-16T15:47:01;96080.44;;;6.54;67.15
75996;BME280;64681;49.738;9.004;2023-01-16T15:52:09;96094.16;;;5.62;73.33
75996;BME280;64681;49.738;9.004;2023-01-16T15:54:34;96085.47;;;6.08;71.62
75996;BME280;64681;49.738;9.004;2023-01-16T15:57:02;96082.81;;;6.12;72.25
75996;BME280;64681;49.738;9.004;2023-01-16T15:59:32;96087.34;;;5.79;73.94
75996;BME280;64681;49.738;9.004;2023-01-16T16:02:22;96078.66;;;6.00;74.24
75996;BME280;64681;49.738;9.004;2023-01-16T16:04:55;96088.44;;;5.27;77.20
75996;BME280;64681;49.738;9.004;2023-01-16T16:07:23;96089.56;;;5.15;77.83
75996;BME280;64681;49.738;9.004;2023-01-16T16:09:53;96092.97;;;5.19;77.60
75996;BME280;64681;49.738;9.004;2023-01-16T16:12:20;96088.47;;;5.63;76.27